createdAt,value
2023-03-31T00:01:44.223Z,99316.22
2023-03-31T00:04:13.463Z,99312.41
2023-03-31T00:06:42.248Z,99307.75
2023-03-31T00:09:14.048Z,99304.88
2023-03-31T00:11:40.921Z,99297.69
2023-03-31T00:14:08.321Z,99296.81
2023-03-31T00:16:35.686Z,99294.03
2023-03-31T00:19:02.494Z,99290.84
2023-03-31T00:21:33.477Z,99293.16
2023-03-31T00:24:02.148Z,99279.91
2023-03-31T00:26:29.332Z,99273.03
2023-03-31T00:28:56.754Z,99277.25
2023-03-31T00:31:23.608Z,99267.53
2023-03-31T00:33:50.634Z,99267.47
2023-03-31T00:36:21.316Z,99268.50
2023-03-31T00:38:48.511Z,99254.41
2023-03-31T00:41:15.942Z,99255.19
2023-03-31T00:44:24.199Z,99247.84
2023-03-31T00:47:10.364Z,99239.97
2023-03-31T00:49:45.006Z,99235.81
2023-03-31T00:52:18.927Z,99228.78
2023-03-31T00:54:48.254Z,99231.44
2023-03-31T00:57:15.898Z,99224.81
2023-03-31T00:59:57.737Z,99222.84
2023-03-31T01:02:27.513Z,99219.56
2023-03-31T01:05:02.030Z,99215.63
2023-03-31T01:07:46.048Z,99212.13
2023-03-31T01:10:13.237Z,99211.09
2023-03-31T01:12:46.621Z,99197.66
2023-03-31T01:15:13.613Z,99168.31
2023-03-31T01:17:44.957Z,99199.06
2023-03-31T01:20:29.770Z,99201.50
2023-03-31T01:23:08.726Z,99187.66
2023-03-31T01:26:07.584Z,99194.84
2023-03-31T01:29:02.150Z,99195.00
2023-03-31T01:31:52.904Z,99175.44
2023-03-31T01:34:46.099Z,99163.03
2023-03-31T01:37:21.189Z,99148.78
2023-03-31T01:40:03.017Z,99154.56
2023-03-31T01:42:37.252Z,99152.75
2023-03-31T01:45:24.604Z,99145.72
2023-03-31T01:48:09.441Z,99145.50
2023-03-31T01:50:44.089Z,99143.69
2023-03-31T01:53:34.766Z,99142.66
2023-03-31T01:56:16.168Z,99135.84
2023-03-31T01:58:51.145Z,99130.47
2023-03-31T02:01:31.130Z,99123.34
2023-03-31T02:04:07.535Z,99110.22
2023-03-31T02:06:39.761Z,99114.03
2023-03-31T02:09:13.378Z,99103.72
2023-03-31T02:11:41.992Z,99106.25
2023-03-31T02:14:12.140Z,99105.34
2023-03-31T02:16:47.570Z,99095.66
2023-03-31T02:19:18.649Z,99098.25
2023-03-31T02:21:49.744Z,99094.41
2023-03-31T02:24:19.529Z,99094.25
2023-03-31T02:26:53.856Z,99085.25
2023-03-31T02:29:20.820Z,99088.63
2023-03-31T02:32:04.407Z,99094.63
2023-03-31T02:34:31.242Z,99080.56
2023-03-31T02:36:57.685Z,99080.47
2023-03-31T02:39:29.619Z,99069.06
2023-03-31T02:41:56.700Z,99043.66
2023-03-31T02:44:23.650Z,99053.41
2023-03-31T02:46:50.593Z,99061.66
2023-03-31T02:49:19.704Z,99046.09
2023-03-31T02:52:11.189Z,99054.63
2023-03-31T02:54:54.329Z,99055.97
2023-03-31T02:57:32.856Z,99058.16
2023-03-31T03:00:16.671Z,99057.59
2023-03-31T03:03:09.248Z,99050.16
2023-03-31T03:05:54.731Z,99046.97
2023-03-31T03:08:33.445Z,99034.09
2023-03-31T03:11:12.182Z,99012.34
2023-03-31T03:13:52.441Z,98990.88
2023-03-31T03:16:28.936Z,98986.84
2023-03-31T03:19:00.180Z,98966.91
2023-03-31T03:21:27.036Z,98957.59
2023-03-31T03:23:53.517Z,98949.16
2023-03-31T03:26:28.111Z,98939.84
2023-03-31T03:28:55.723Z,98944.25
2023-03-31T03:31:23.974Z,98938.22
2023-03-31T03:33:50.957Z,98932.13
2023-03-31T03:36:17.264Z,98939.16
2023-03-31T03:38:43.610Z,98933.69
2023-03-31T03:41:10.195Z,98922.22
2023-03-31T03:43:36.537Z,98904.50
2023-03-31T03:46:03.045Z,98896.13
2023-03-31T03:48:29.567Z,98907.28
2023-03-31T03:50:57.229Z,98894.97
2023-03-31T03:53:23.500Z,98912.59
2023-03-31T03:55:49.894Z,98909.09
2023-03-31T03:58:18.940Z,98893.09
2023-03-31T04:00:46.164Z,98870.31
2023-03-31T04:03:13.562Z,98852.19
2023-03-31T04:05:40.145Z,98848.91
2023-03-31T04:08:08.356Z,98868.19
2023-03-31T04:10:38.179Z,98847.91
2023-03-31T04:13:04.465Z,98840.94
2023-03-31T04:15:30.803Z,98815.34
2023-03-31T04:17:58.015Z,98828.63
2023-03-31T04:20:27.667Z,98856.19
2023-03-31T04:22:54.603Z,98851.56
2023-03-31T04:25:22.543Z,98841.41
2023-03-31T04:27:54.711Z,98848.91
2023-03-31T04:30:30.509Z,98815.13
2023-03-31T04:32:59.329Z,98830.44
2023-03-31T04:35:42.616Z,98808.34
2023-03-31T04:38:09.842Z,98806.53
2023-03-31T04:40:36.102Z,98801.25
2023-03-31T04:43:02.422Z,98807.41
2023-03-31T04:45:28.747Z,98797.56
2023-03-31T04:47:55.156Z,98784.28
2023-03-31T04:50:21.508Z,98778.03
2023-03-31T04:52:47.763Z,98765.72
2023-03-31T04:55:14.113Z,98770.94
2023-03-31T04:57:40.481Z,98768.28
2023-03-31T05:00:07.885Z,98776.84
2023-03-31T05:02:34.286Z,98782.69
2023-03-31T05:05:00.599Z,98777.81
2023-03-31T05:07:26.948Z,98801.03
2023-03-31T05:09:53.226Z,98803.47
2023-03-31T05:12:19.526Z,98791.66
2023-03-31T05:14:45.867Z,98795.09
2023-03-31T05:17:12.177Z,98789.72
2023-03-31T05:19:38.446Z,98785.50
2023-03-31T05:22:04.788Z,98783.09
2023-03-31T05:24:31.311Z,98786.91
2023-03-31T05:26:57.616Z,98774.97
2023-03-31T05:29:24.450Z,98775.22
2023-03-31T05:31:50.936Z,98759.88
2023-03-31T05:34:17.299Z,98757.53
2023-03-31T05:36:43.713Z,98757.59
2023-03-31T05:39:10.638Z,98745.75
2023-03-31T05:41:36.938Z,98756.03
2023-03-31T05:44:03.226Z,98741.63
2023-03-31T05:46:29.702Z,98746.78
2023-03-31T05:48:56.458Z,98706.16
2023-03-31T05:51:23.322Z,98710.00
2023-03-31T05:53:49.627Z,98714.66
2023-03-31T05:56:15.997Z,98700.66
2023-03-31T05:58:42.630Z,98682.59
2023-03-31T06:01:12.063Z,98691.34
2023-03-31T06:03:41.362Z,98681.03
2023-03-31T06:06:09.631Z,98676.03
2023-03-31T06:08:37.646Z,98673.22
2023-03-31T06:11:06.501Z,98666.13
2023-03-31T06:13:34.140Z,98648.47
2023-03-31T06:16:01.235Z,98636.25
2023-03-31T06:18:29.478Z,98638.97
2023-03-31T06:20:56.794Z,98641.06
2023-03-31T06:23:23.799Z,98620.59
2023-03-31T06:25:52.031Z,98617.09
2023-03-31T06:28:19.927Z,98609.22
2023-03-31T06:30:46.292Z,98569.34
2023-03-31T06:33:13.521Z,98578.69
2023-03-31T06:35:41.340Z,98585.53
2023-03-31T06:38:07.963Z,98563.63
2023-03-31T06:40:34.333Z,98570.22
2023-03-31T06:43:01.160Z,98564.69
2023-03-31T06:45:27.446Z,98558.34
2023-03-31T06:47:53.745Z,98536.28
2023-03-31T06:50:20.132Z,98552.53
2023-03-31T06:52:47.057Z,98552.44
2023-03-31T06:55:15.438Z,98547.84
2023-03-31T06:57:42.284Z,98539.63
2023-03-31T07:00:09.238Z,98541.44
2023-03-31T07:02:37.160Z,98526.84
2023-03-31T07:05:03.920Z,98536.13
2023-03-31T07:07:33.849Z,98539.03
2023-03-31T07:10:00.186Z,98536.59
2023-03-31T07:12:26.456Z,98542.19
2023-03-31T07:14:52.769Z,98512.38
2023-03-31T07:17:19.158Z,98520.59
2023-03-31T07:19:48.029Z,98532.94
2023-03-31T07:22:15.701Z,98519.91
2023-03-31T07:24:42.172Z,98534.56
2023-03-31T07:27:08.590Z,98515.28
2023-03-31T07:29:34.860Z,98514.28
2023-03-31T07:32:01.404Z,98522.81
2023-03-31T07:34:27.686Z,98529.94
2023-03-31T07:36:56.890Z,98497.97
2023-03-31T07:39:23.400Z,98530.53
2023-03-31T07:41:49.691Z,98530.44
2023-03-31T07:44:17.482Z,98543.81
2023-03-31T07:46:43.858Z,98562.53
2023-03-31T07:49:10.440Z,98562.88
2023-03-31T07:51:36.812Z,98546.91
2023-03-31T07:54:03.206Z,98566.16
2023-03-31T07:56:29.503Z,98539.03
2023-03-31T07:58:57.540Z,98565.38
2023-03-31T08:01:28.808Z,98568.91
2023-03-31T08:03:55.635Z,98548.34
2023-03-31T08:06:24.459Z,98558.97
2023-03-31T08:08:50.827Z,98571.63
2023-03-31T08:11:18.480Z,98545.00
2023-03-31T08:13:44.813Z,98571.22
2023-03-31T08:16:11.200Z,98571.97
2023-03-31T08:18:37.594Z,98553.34
2023-03-31T08:21:04.239Z,98560.31
2023-03-31T08:23:30.556Z,98552.28
2023-03-31T08:26:16.553Z,98564.75
2023-03-31T08:28:44.690Z,98557.25
2023-03-31T08:31:11.721Z,98569.47
2023-03-31T08:33:38.215Z,98567.53
2023-03-31T08:36:08.907Z,98562.88
2023-03-31T08:38:37.647Z,98586.00
2023-03-31T08:41:07.585Z,98584.81
2023-03-31T08:43:40.704Z,98574.66
2023-03-31T08:46:13.900Z,98576.44
2023-03-31T08:48:48.671Z,98552.88
2023-03-31T08:51:31.283Z,98538.84
2023-03-31T08:54:11.905Z,98541.50
2023-03-31T08:56:43.463Z,98535.84
2023-03-31T08:59:40.998Z,98558.03
2023-03-31T09:02:44.033Z,98563.19
2023-03-31T09:05:53.132Z,98547.19
2023-03-31T09:08:33.521Z,98534.44
2023-03-31T09:13:55.755Z,98514.94
2023-03-31T09:16:22.111Z,98520.31
2023-03-31T09:18:49.102Z,98526.53
2023-03-31T09:21:44.316Z,98539.97
2023-03-31T09:24:32.981Z,98543.19
2023-03-31T09:27:06.882Z,98533.28
2023-03-31T09:29:52.384Z,98543.34
2023-03-31T09:32:25.358Z,98537.44
2023-03-31T09:35:01.651Z,98543.06
2023-03-31T09:37:32.679Z,98528.88
2023-03-31T09:40:07.686Z,98528.09
2023-03-31T09:42:35.651Z,98509.09
2023-03-31T09:45:02.694Z,98524.44
2023-03-31T09:47:38.856Z,98523.22
2023-03-31T09:50:07.678Z,98510.03
2023-03-31T09:52:50.371Z,98525.78
2023-03-31T09:55:38.997Z,98530.91
2023-03-31T09:58:08.501Z,98540.81
2023-03-31T10:00:36.142Z,98521.25
2023-03-31T10:03:07.599Z,98527.00
2023-03-31T10:05:51.729Z,98504.47
2023-03-31T10:08:26.294Z,98508.94
2023-03-31T10:11:01.685Z,98500.63
2023-03-31T10:13:46.860Z,98493.88
2023-03-31T10:16:27.766Z,98465.53
2023-03-31T10:18:54.227Z,98471.97
2023-03-31T10:21:26.345Z,98475.97
2023-03-31T10:23:53.736Z,98472.19
2023-03-31T10:26:22.694Z,98473.88
2023-03-31T10:28:52.534Z,98480.06
2023-03-31T10:31:20.144Z,98479.09
2023-03-31T10:33:48.719Z,98489.72
2023-03-31T10:36:21.923Z,98494.56
2023-03-31T10:38:50.066Z,98487.16
2023-03-31T10:41:23.673Z,98483.91
2023-03-31T10:43:58.425Z,98515.00
2023-03-31T10:46:46.150Z,98501.91
2023-03-31T10:49:21.399Z,98493.19
2023-03-31T10:51:59.140Z,98471.88
2023-03-31T10:54:26.612Z,98473.34
2023-03-31T10:56:56.438Z,98472.09
2023-03-31T11:00:02.059Z,98475.16
2023-03-31T11:02:51.218Z,98454.69
2023-03-31T11:05:48.952Z,98456.44
2023-03-31T11:08:36.924Z,98455.78
2023-03-31T11:11:12.468Z,98445.06
2023-03-31T11:13:48.169Z,98448.78
2023-03-31T11:16:32.925Z,98429.03
2023-03-31T11:19:32.548Z,98424.44
2023-03-31T11:22:17.223Z,98413.78
2023-03-31T11:24:55.522Z,98406.63
2023-03-31T11:27:34.107Z,98388.41
2023-03-31T11:30:17.512Z,98402.56
2023-03-31T11:33:20.707Z,98401.78
2023-03-31T11:35:47.207Z,98398.34
2023-03-31T11:38:24.063Z,98388.22
2023-03-31T11:41:01.211Z,98402.59
2023-03-31T11:43:36.439Z,98402.38
2023-03-31T11:46:15.207Z,98403.63
2023-03-31T11:48:55.152Z,98401.81
2023-03-31T11:51:28.185Z,98413.22
2023-03-31T11:53:56.123Z,98411.63
2023-03-31T11:56:26.449Z,98397.50
2023-03-31T11:58:56.600Z,98402.91
2023-03-31T12:01:33.654Z,98402.31
2023-03-31T12:04:03.769Z,98388.56
2023-03-31T12:06:33.706Z,98379.59
2023-03-31T12:09:45.274Z,98394.06
2023-03-31T12:12:27.811Z,98385.88
2023-03-31T12:15:02.860Z,98381.59
2023-03-31T12:17:29.648Z,98383.53
2023-03-31T12:20:10.442Z,98361.84
2023-03-31T12:22:44.202Z,98363.97
2023-03-31T12:25:15.112Z,98354.84
2023-03-31T12:27:42.841Z,98361.41
2023-03-31T12:30:19.682Z,98358.28
2023-03-31T12:33:12.357Z,98388.31
2023-03-31T12:35:58.471Z,98385.84
2023-03-31T12:38:30.928Z,98397.00
2023-03-31T12:41:38.254Z,98377.84
2023-03-31T12:44:39.509Z,98385.59
2023-03-31T12:47:40.878Z,98379.53
2023-03-31T12:50:19.287Z,98386.75
2023-03-31T12:53:09.708Z,98382.56
2023-03-31T12:56:08.754Z,98370.81
2023-03-31T12:58:43.061Z,98358.94
2023-03-31T13:01:20.156Z,98372.56
2023-03-31T13:03:51.744Z,98364.03
2023-03-31T13:06:30.298Z,98359.69
2023-03-31T13:08:57.542Z,98352.25
2023-03-31T13:11:32.935Z,98350.69
2023-03-31T13:14:20.740Z,98339.72
2023-03-31T13:16:48.948Z,98327.03
2023-03-31T13:19:47.982Z,98339.06
2023-03-31T13:22:33.232Z,98352.25
2023-03-31T13:25:30.682Z,98378.53
2023-03-31T13:27:59.252Z,98355.03
2023-03-31T13:30:41.219Z,98385.00
2023-03-31T13:33:10.661Z,98384.78
2023-03-31T13:35:39.330Z,98385.06
2023-03-31T13:38:25.656Z,98381.56
2023-03-31T13:41:13.281Z,98390.00
2023-03-31T13:43:58.416Z,98380.28
2023-03-31T13:46:27.774Z,98381.66
2023-03-31T13:49:37.423Z,98388.84
2023-03-31T13:52:05.252Z,98391.38
2023-03-31T13:55:13.950Z,98402.66
2023-03-31T13:58:19.920Z,98396.31
2023-03-31T14:01:14.277Z,98370.19
2023-03-31T14:03:55.804Z,98370.28
2023-03-31T14:06:36.991Z,98376.84
2023-03-31T14:09:10.885Z,98373.84
2023-03-31T14:11:37.618Z,98367.31
2023-03-31T14:14:16.681Z,98345.38
2023-03-31T14:16:48.748Z,98355.06
2023-03-31T14:19:42.330Z,98355.28
2023-03-31T14:23:02.843Z,98348.16
2023-03-31T14:25:50.350Z,98336.28
2023-03-31T14:28:42.438Z,98342.69
2023-03-31T14:31:13.402Z,98347.84
2023-03-31T14:33:58.501Z,98333.00
2023-03-31T14:36:39.291Z,98315.03
2023-03-31T14:39:10.717Z,98315.00
2023-03-31T14:41:39.033Z,98312.19
2023-03-31T14:44:07.516Z,98323.63
2023-03-31T14:46:37.987Z,98312.31
2023-03-31T14:49:19.929Z,98315.13
2023-03-31T14:51:46.727Z,98308.47
2023-03-31T14:54:18.488Z,98296.09
2023-03-31T14:56:49.534Z,98304.06
2023-03-31T14:59:22.533Z,98299.63
2023-03-31T15:01:49.909Z,98293.16
2023-03-31T15:04:20.445Z,98293.47
2023-03-31T15:06:51.777Z,98282.19
2023-03-31T15:09:28.341Z,98282.25
2023-03-31T15:12:00.527Z,98345.22
2023-03-31T15:14:34.371Z,98347.31
2023-03-31T15:17:00.777Z,98347.22
2023-03-31T15:19:34.208Z,98349.72
2023-03-31T15:22:10.506Z,98348.06
2023-03-31T15:24:36.998Z,98352.50
2023-03-31T15:27:18.059Z,98367.03
2023-03-31T15:29:56.047Z,98374.97
2023-03-31T15:32:27.139Z,98367.38
2023-03-31T15:34:55.487Z,98355.97
2023-03-31T15:37:35.091Z,98353.06
2023-03-31T15:40:07.042Z,98357.63
2023-03-31T15:42:35.021Z,98347.69
2023-03-31T15:45:15.754Z,98354.59
2023-03-31T15:47:52.794Z,98342.75
2023-03-31T15:50:24.228Z,98334.94
2023-03-31T15:52:55.785Z,98343.88
2023-03-31T15:55:39.353Z,98345.66
2023-03-31T15:58:06.269Z,98325.38
2023-03-31T16:00:47.695Z,98330.47
2023-03-31T16:03:24.145Z,98325.53
2023-03-31T16:06:01.212Z,98330.31
2023-03-31T16:08:54.478Z,98335.72
2023-03-31T16:11:33.205Z,98327.09
2023-03-31T16:14:05.729Z,98321.50
2023-03-31T16:16:33.185Z,98323.94
2023-03-31T16:19:07.294Z,98314.88
2023-03-31T16:21:42.083Z,98316.94
2023-03-31T16:24:09.070Z,98308.38
2023-03-31T16:26:37.290Z,98318.94
2023-03-31T16:29:04.955Z,98316.28
2023-03-31T16:31:41.496Z,98307.00
2023-03-31T16:34:10.731Z,98314.66
2023-03-31T16:36:37.141Z,98306.31
2023-03-31T16:39:05.251Z,98296.31
2023-03-31T16:41:33.122Z,98308.19
2023-03-31T16:43:59.640Z,98301.81
2023-03-31T16:46:26.326Z,98290.91
2023-03-31T16:48:52.803Z,98307.97
2023-03-31T16:51:19.890Z,98310.84
2023-03-31T16:53:47.794Z,98321.97
2023-03-31T16:56:14.411Z,98331.91
2023-03-31T16:58:41.304Z,98290.56
2023-03-31T17:01:08.613Z,98315.22
2023-03-31T17:03:37.200Z,98317.13
2023-03-31T17:06:10.518Z,98324.75
2023-03-31T17:08:38.181Z,98332.13
2023-03-31T17:11:07.871Z,98326.91
2023-03-31T17:13:34.436Z,98343.97
2023-03-31T17:16:16.828Z,98335.16
2023-03-31T17:18:45.438Z,98331.34
2023-03-31T17:21:14.433Z,98317.31
2023-03-31T17:23:41.438Z,98329.56
2023-03-31T17:26:09.654Z,98327.56
2023-03-31T17:28:36.704Z,98317.03
2023-03-31T17:31:11.310Z,98323.00
2023-03-31T17:33:37.599Z,98317.78
2023-03-31T17:36:04.188Z,98313.16
2023-03-31T17:38:30.598Z,98317.72
2023-03-31T17:41:02.909Z,98330.97
2023-03-31T17:43:29.443Z,98318.47
2023-03-31T17:46:07.453Z,98334.03
2023-03-31T17:48:35.012Z,98326.59
2023-03-31T17:51:10.239Z,98330.16
2023-03-31T17:53:36.643Z,98338.75
2023-03-31T17:56:04.285Z,98331.16
2023-03-31T17:58:31.085Z,98335.06
2023-03-31T18:00:57.700Z,98342.16
2023-03-31T18:03:24.530Z,98353.75
2023-03-31T18:05:50.880Z,98368.34
2023-03-31T18:08:17.704Z,98372.34
2023-03-31T18:10:44.074Z,98384.31
2023-03-31T18:13:11.422Z,98397.38
2023-03-31T18:15:38.765Z,98406.75
2023-03-31T18:18:05.726Z,98412.53
2023-03-31T18:20:32.639Z,98368.25
2023-03-31T18:23:00.130Z,98372.03
2023-03-31T18:25:26.921Z,98374.41
2023-03-31T18:27:53.511Z,98382.78
2023-03-31T18:30:19.997Z,98393.69
2023-03-31T18:32:46.323Z,98393.84
2023-03-31T18:35:12.708Z,98382.72
2023-03-31T18:37:39.312Z,98399.16
2023-03-31T18:40:06.251Z,98391.38
2023-03-31T18:42:32.521Z,98388.81
2023-03-31T18:44:58.858Z,98389.66
2023-03-31T18:47:26.398Z,98381.19
2023-03-31T18:49:55.513Z,98395.09
2023-03-31T18:52:22.086Z,98393.91
2023-03-31T18:54:49.987Z,98388.09
2023-03-31T18:57:16.358Z,98395.72
2023-03-31T18:59:43.380Z,98375.03
2023-03-31T19:02:13.876Z,98384.25
2023-03-31T19:04:40.398Z,98382.25
2023-03-31T19:07:06.726Z,98387.81
2023-03-31T19:09:33.058Z,98393.75
2023-03-31T19:11:59.428Z,98376.13
2023-03-31T19:14:25.757Z,98376.41
2023-03-31T19:16:52.258Z,98391.50
2023-03-31T19:19:18.666Z,98384.44
2023-03-31T19:21:45.461Z,98381.25
2023-03-31T19:24:11.897Z,98386.31
2023-03-31T19:26:38.470Z,98392.56
2023-03-31T19:29:05.404Z,98393.22
2023-03-31T19:31:38.002Z,98390.59
2023-03-31T19:34:05.723Z,98388.00
2023-03-31T19:36:32.032Z,98386.25
2023-03-31T19:38:59.208Z,98395.16
2023-03-31T19:41:27.190Z,98391.16
2023-03-31T19:43:54.295Z,98367.41
2023-03-31T19:46:20.638Z,98395.22
2023-03-31T19:48:46.962Z,98406.69
2023-03-31T19:51:13.338Z,98391.38
2023-03-31T19:53:40.909Z,98408.91
2023-03-31T19:56:09.671Z,98406.25
2023-03-31T19:58:37.048Z,98392.41
2023-03-31T20:01:13.285Z,98399.63
2023-03-31T20:03:39.677Z,98402.63
2023-03-31T20:06:09.090Z,98401.00
2023-03-31T20:08:37.016Z,98408.41
2023-03-31T20:11:05.899Z,98406.72
2023-03-31T20:13:35.648Z,98402.53
2023-03-31T20:16:05.824Z,98415.78
2023-03-31T20:18:32.576Z,98408.75
2023-03-31T20:21:11.302Z,98410.56
2023-03-31T20:23:38.891Z,98411.53
2023-03-31T20:26:08.794Z,98411.41
2023-03-31T20:28:37.694Z,98409.91
2023-03-31T20:31:15.657Z,98412.56
2023-03-31T20:33:43.161Z,98411.09
2023-03-31T20:36:15.472Z,98403.56
2023-03-31T20:38:44.957Z,98422.72
2023-03-31T20:41:11.487Z,98419.31
2023-03-31T20:43:38.458Z,98419.19
2023-03-31T20:46:07.419Z,98420.09
2023-03-31T20:48:42.871Z,98418.19
2023-03-31T20:51:12.221Z,98411.88
2023-03-31T20:53:47.507Z,98409.97
2023-03-31T20:56:16.819Z,98418.78
2023-03-31T20:58:44.359Z,98421.44
2023-03-31T21:01:11.818Z,98421.28
2023-03-31T21:03:38.393Z,98410.13
2023-03-31T21:06:11.083Z,98424.34
2023-03-31T21:08:38.077Z,98414.59
2023-03-31T21:11:04.422Z,98417.50
2023-03-31T21:13:32.000Z,98428.13
2023-03-31T21:15:59.753Z,98416.88
2023-03-31T21:18:27.297Z,98417.78
2023-03-31T21:20:56.809Z,98420.41
2023-03-31T21:23:24.567Z,98423.31
2023-03-31T21:25:53.690Z,98428.38
2023-03-31T21:28:22.775Z,98421.19
2023-03-31T21:30:50.808Z,98424.69
2023-03-31T21:33:17.606Z,98429.72
2023-03-31T21:35:44.145Z,98415.63
2023-03-31T21:38:10.451Z,98424.00
2023-03-31T21:40:36.889Z,98416.06
2023-03-31T21:43:03.293Z,98422.28
2023-03-31T21:45:30.812Z,98422.28
2023-03-31T21:47:58.010Z,98413.91
2023-03-31T21:50:24.357Z,98433.78
2023-03-31T21:52:50.660Z,98414.59
2023-03-31T21:55:17.019Z,98420.59
2023-03-31T21:57:43.356Z,98433.78
2023-03-31T22:00:12.316Z,98432.03
2023-03-31T22:02:39.242Z,98421.63
2023-03-31T22:05:06.032Z,98433.50
2023-03-31T22:07:32.450Z,98424.66
2023-03-31T22:09:58.978Z,98434.34
2023-03-31T22:12:26.390Z,98431.72
2023-03-31T22:14:52.674Z,98428.97
2023-03-31T22:17:20.681Z,98415.09
2023-03-31T22:19:47.922Z,98423.56
2023-03-31T22:22:14.222Z,98426.22
2023-03-31T22:24:40.610Z,98422.78
2023-03-31T22:27:07.194Z,98425.81
2023-03-31T22:29:33.843Z,98427.50
2023-03-31T22:32:00.427Z,98426.31
2023-03-31T22:34:26.787Z,98431.63
2023-03-31T22:36:53.144Z,98444.13
2023-03-31T22:39:19.508Z,98436.16
2023-03-31T22:41:48.158Z,98429.25
2023-03-31T22:44:14.482Z,98419.75
2023-03-31T22:46:41.412Z,98439.75
2023-03-31T22:49:07.735Z,98432.56
2023-03-31T22:51:34.853Z,98434.28
2023-03-31T22:54:01.154Z,98420.41
2023-03-31T22:56:28.226Z,98443.00
2023-03-31T22:58:57.444Z,98435.13
2023-03-31T23:01:24.240Z,98448.19
2023-03-31T23:03:50.954Z,98433.41
2023-03-31T23:06:17.284Z,98439.31
2023-03-31T23:08:45.251Z,98425.44
2023-03-31T23:11:12.941Z,98431.94
2023-03-31T23:13:39.643Z,98433.47
2023-03-31T23:16:07.417Z,98425.88
2023-03-31T23:18:34.552Z,98421.19
2023-03-31T23:21:04.285Z,98427.84
2023-03-31T23:23:30.669Z,98433.13
2023-03-31T23:26:00.734Z,98434.69
2023-03-31T23:28:27.545Z,98430.13
2023-03-31T23:30:56.674Z,98436.41
2023-03-31T23:33:24.230Z,98430.34
2023-03-31T23:35:52.434Z,98438.28
2023-03-31T23:38:19.934Z,98434.19
2023-03-31T23:40:46.614Z,98433.13
2023-03-31T23:43:13.429Z,98434.94
2023-03-31T23:45:39.726Z,98431.44
2023-03-31T23:48:06.117Z,98428.03
2023-03-31T23:50:33.844Z,98421.84
2023-03-31T23:53:01.273Z,98438.63
2023-03-31T23:55:28.579Z,98427.84
2023-03-31T23:57:55.248Z,98435.88
